sensor_id;sensor_type;location;lat;lon;timestamp;temperature;humidity
22288;DHT22;11312;51.464;6.968;2023-08-24T00:00:22;18.70;99.90
22288;DHT22;11312;51.464;6.968;2023-08-24T00:02:48;18.60;99.90
22288;DHT22;11312;51.464;6.968;2023-08-24T00:05:13;18.60;99.90
22288;DHT22;11312;51.464;6.968;2023-08-24T00:07:39;18.60;99.90
22288;DHT22;11312;51.464;6.968;2023-08-24T00:10:06;18.70;99.90
22288;DHT22;11312;51.464;6.968;2023-08-24T00:12:33;18.60;99.90
22288;DHT22;11312;51.464;6.968;2023-08-24T00:15:00;18.50;99.90
22288;DHT22;11312;51.464;6.968;2023-08-24T00:17:25;18.60;99.90
22288;DHT22;11312;51.464;6.968;2023-08-24T00:19:51;18.60;99.90
22288;DHT22;11312;51.464;6.968;2023-08-24T00:22:16;18.60;99.90
22288;DHT22;11312;51.464;6.968;2023-08-24T00:24:42;18.50;99.90
22288;DHT22;11312;51.464;6.968;2023-08-24T00:27:07;18.50;99.90
22288;DHT22;11312;51.464;6.968;2023-08-24T00:29:33;18.50;99.90
22288;DHT22;11312;51.464;6.968;2023-08-24T00:31:59;18.50;99.90
22288;DHT22;11312;51.464;6.968;2023-08-24T00:34:24;18.50;99.90
22288;DHT22;11312;51.464;6.968;2023-08-24T00:36:51;18.40;99.90
22288;DHT22;11312;51.464;6.968;2023-08-24T00:39:17;18.40;99.90
22288;DHT22;11312;51.464;6.968;2023-08-24T00:41:42;18.40;99.90
22288;DHT22;11312;51.464;6.968;2023-08-24T00:44:08;18.40;99.90
22288;DHT22;11312;51.464;6.968;2023-08-24T00:46:34;18.40;99.90
22288;DHT22;11312;51.464;6.968;2023-08-24T00:49:00;18.40;99.90
22288;DHT22;11312;51.464;6.968;2023-08-24T00:51:26;18.30;99.90
22288;DHT22;11312;51.464;6.968;2023-08-24T00:53:52;18.40;99.90
22288;DHT22;11312;51.464;6.968;2023-08-24T00:56:18;18.40;99.90
22288;DHT22;11312;51.464;6.968;2023-08-24T00:58:50;18.30;99.90
22288;DHT22;11312;51.464;6.968;2023-08-24T01:01:19;18.30;99.90
22288;DHT22;11312;51.464;6.968;2023-08-24T01:03:45;18.20;99.90
22288;DHT22;11312;51.464;6.968;2023-08-24T01:06:11;18.30;99.90
22288;DHT22;11312;51.464;6.968;2023-08-24T01:08:36;18.30;99.90
22288;DHT22;11312;51.464;6.968;2023-08-24T01:11:20;18.30;99.90
22288;DHT22;11312;51.464;6.968;2023-08-24T01:17:01;18.20;99.90
22288;DHT22;11312;51.464;6.968;2023-08-24T01:19:38;18.10;99.90
22288;DHT22;11312;51.464;6.968;2023-08-24T01:24:53;18.10;99.90
22288;DHT22;11312;51.464;6.968;2023-08-24T01:27:20;18.10;99.90
22288;DHT22;11312;51.464;6.968;2023-08-24T01:29:46;18.00;99.90
22288;DHT22;11312;51.464;6.968;2023-08-24T01:32:12;18.10;99.90
22288;DHT22;11312;51.464;6.968;2023-08-24T01:34:38;18.00;99.90
22288;DHT22;11312;51.464;6.968;2023-08-24T01:37:06;18.00;99.90
22288;DHT22;11312;51.464;6.968;2023-08-24T01:39:42;18.00;99.90
22288;DHT22;11312;51.464;6.968;2023-08-24T01:42:11;18.00;99.90
22288;DHT22;11312;51.464;6.968;2023-08-24T01:44:41;18.00;99.90
22288;DHT22;11312;51.464;6.968;2023-08-24T01:47:09;18.00;99.90
22288;DHT22;11312;51.464;6.968;2023-08-24T01:49:37;18.00;99.90
22288;DHT22;11312;51.464;6.968;2023-08-24T01:52:04;17.90;99.90
22288;DHT22;11312;51.464;6.968;2023-08-24T01:54:30;17.80;99.90
22288;DHT22;11312;51.464;6.968;2023-08-24T01:56:56;17.80;99.90
22288;DHT22;11312;51.464;6.968;2023-08-24T01:59:22;17.80;99.90
22288;DHT22;11312;51.464;6.968;2023-08-24T02:01:47;17.90;99.90
22288;DHT22;11312;51.464;6.968;2023-08-24T02:04:13;17.90;99.90
22288;DHT22;11312;51.464;6.968;2023-08-24T02:06:39;17.90;99.90
22288;DHT22;11312;51.464;6.968;2023-08-24T02:09:04;17.80;99.90
22288;DHT22;11312;51.464;6.968;2023-08-24T02:11:30;17.90;99.90
22288;DHT22;11312;51.464;6.968;2023-08-24T02:13:56;17.80;99.90
22288;DHT22;11312;51.464;6.968;2023-08-24T02:16:21;17.80;99.90
22288;DHT22;11312;51.464;6.968;2023-08-24T02:18:47;17.80;99.90
22288;DHT22;11312;51.464;6.968;2023-08-24T02:21:13;17.80;99.90
22288;DHT22;11312;51.464;6.968;2023-08-24T02:23:39;17.90;99.90
22288;DHT22;11312;51.464;6.968;2023-08-24T02:26:05;17.70;99.90
22288;DHT22;11312;51.464;6.968;2023-08-24T02:28:32;17.70;99.90
22288;DHT22;11312;51.464;6.968;2023-08-24T02:31:02;17.70;99.90
22288;DHT22;11312;51.464;6.968;2023-08-24T02:33:28;17.70;99.90
22288;DHT22;11312;51.464;6.968;2023-08-24T02:35:55;17.70;99.90
22288;DHT22;11312;51.464;6.968;2023-08-24T02:38:20;17.70;99.90
22288;DHT22;11312;51.464;6.968;2023-08-24T02:40:46;17.60;99.90
22288;DHT22;11312;51.464;6.968;2023-08-24T02:43:11;17.70;99.90
22288;DHT22;11312;51.464;6.968;2023-08-24T02:45:37;17.60;99.90
22288;DHT22;11312;51.464;6.968;2023-08-24T02:48:03;17.70;99.90
22288;DHT22;11312;51.464;6.968;2023-08-24T02:50:30;17.70;99.90
22288;DHT22;11312;51.464;6.968;2023-08-24T02:52:55;17.50;99.90
22288;DHT22;11312;51.464;6.968;2023-08-24T02:55:24;17.60;99.90
22288;DHT22;11312;51.464;6.968;2023-08-24T02:57:50;17.70;99.90
22288;DHT22;11312;51.464;6.968;2023-08-24T03:00:16;17.70;99.90
22288;DHT22;11312;51.464;6.968;2023-08-24T03:02:42;17.70;99.90
22288;DHT22;11312;51.464;6.968;2023-08-24T03:05:08;17.70;99.90
22288;DHT22;11312;51.464;6.968;2023-08-24T03:07:33;17.70;99.90
22288;DHT22;11312;51.464;6.968;2023-08-24T03:09:59;17.70;99.90
22288;DHT22;11312;51.464;6.968;2023-08-24T03:12:25;17.80;99.90
22288;DHT22;11312;51.464;6.968;2023-08-24T03:14:53;17.60;99.90
22288;DHT22;11312;51.464;6.968;2023-08-24T03:17:20;17.70;99.90
22288;DHT22;11312;51.464;6.968;2023-08-24T03:19:46;17.70;99.90
22288;DHT22;11312;51.464;6.968;2023-08-24T03:22:12;17.70;99.90
22288;DHT22;11312;51.464;6.968;2023-08-24T03:24:37;17.70;99.90
22288;DHT22;11312;51.464;6.968;2023-08-24T03:27:03;17.70;99.90
22288;DHT22;11312;51.464;6.968;2023-08-24T03:29:29;17.70;99.90
22288;DHT22;11312;51.464;6.968;2023-08-24T03:31:54;17.70;99.90
22288;DHT22;11312;51.464;6.968;2023-08-24T03:34:20;17.60;99.90
22288;DHT22;11312;51.464;6.968;2023-08-24T03:36:48;17.70;99.90
22288;DHT22;11312;51.464;6.968;2023-08-24T03:39:14;17.80;99.90
22288;DHT22;11312;51.464;6.968;2023-08-24T03:41:42;17.90;99.90
22288;DHT22;11312;51.464;6.968;2023-08-24T03:44:08;18.00;99.90
22288;DHT22;11312;51.464;6.968;2023-08-24T03:46:34;18.00;99.90
22288;DHT22;11312;51.464;6.968;2023-08-24T03:48:59;17.90;99.90
22288;DHT22;11312;51.464;6.968;2023-08-24T03:51:25;18.00;99.90
22288;DHT22;11312;51.464;6.968;2023-08-24T03:53:50;18.00;99.90
22288;DHT22;11312;51.464;6.968;2023-08-24T03:56:16;18.00;99.90
22288;DHT22;11312;51.464;6.968;2023-08-24T03:58:42;18.00;99.90
22288;DHT22;11312;51.464;6.968;2023-08-24T04:01:10;18.00;99.90
22288;DHT22;11312;51.464;6.968;2023-08-24T04:03:36;18.00;99.90
22288;DHT22;11312;51.464;6.968;2023-08-24T04:06:02;18.00;99.90
22288;DHT22;11312;51.464;6.968;2023-08-24T04:08:27;18.00;99.90
22288;DHT22;11312;51.464;6.968;2023-08-24T04:10:53;18.00;99.90
22288;DHT22;11312;51.464;6.968;2023-08-24T04:13:19;17.90;99.90
22288;DHT22;11312;51.464;6.968;2023-08-24T04:15:44;17.90;99.90
22288;DHT22;11312;51.464;6.968;2023-08-24T04:18:10;18.00;99.90
22288;DHT22;11312;51.464;6.968;2023-08-24T04:20:36;18.00;99.90
22288;DHT22;11312;51.464;6.968;2023-08-24T04:23:02;18.10;99.90
22288;DHT22;11312;51.464;6.968;2023-08-24T04:25:28;18.10;99.90
22288;DHT22;11312;51.464;6.968;2023-08-24T04:27:54;18.10;99.90
22288;DHT22;11312;51.464;6.968;2023-08-24T04:30:20;18.10;99.90
22288;DHT22;11312;51.464;6.968;2023-08-24T04:32:47;18.10;99.90
22288;DHT22;11312;51.464;6.968;2023-08-24T04:35:13;18.10;99.90
22288;DHT22;11312;51.464;6.968;2023-08-24T04:37:39;18.10;99.90
22288;DHT22;11312;51.464;6.968;2023-08-24T04:40:05;18.10;99.90
22288;DHT22;11312;51.464;6.968;2023-08-24T04:42:33;18.10;99.90
22288;DHT22;11312;51.464;6.968;2023-08-24T04:44:58;18.10;99.90
22288;DHT22;11312;51.464;6.968;2023-08-24T04:47:24;18.10;99.90
22288;DHT22;11312;51.464;6.968;2023-08-24T04:49:49;17.90;99.90
22288;DHT22;11312;51.464;6.968;2023-08-24T04:52:15;18.00;99.90
22288;DHT22;11312;51.464;6.968;2023-08-24T04:54:41;17.90;99.90
22288;DHT22;11312;51.464;6.968;2023-08-24T04:57:06;18.00;99.90
22288;DHT22;11312;51.464;6.968;2023-08-24T04:59:32;18.10;99.90
22288;DHT22;11312;51.464;6.968;2023-08-24T05:01:57;18.10;99.90
22288;DHT22;11312;51.464;6.968;2023-08-24T05:04:24;18.20;99.90
22288;DHT22;11312;51.464;6.968;2023-08-24T05:06:49;18.10;99.90
22288;DHT22;11312;51.464;6.968;2023-08-24T05:09:15;18.10;99.90
22288;DHT22;11312;51.464;6.968;2023-08-24T05:11:41;18.00;99.90
22288;DHT22;11312;51.464;6.968;2023-08-24T05:14:06;18.10;99.90
22288;DHT22;11312;51.464;6.968;2023-08-24T05:16:32;18.10;99.90
22288;DHT22;11312;51.464;6.968;2023-08-24T05:18:57;18.20;99.90
22288;DHT22;11312;51.464;6.968;2023-08-24T05:21:23;18.30;99.90
22288;DHT22;11312;51.464;6.968;2023-08-24T05:23:49;18.40;99.90
22288;DHT22;11312;51.464;6.968;2023-08-24T05:26:14;18.50;99.90
22288;DHT22;11312;51.464;6.968;2023-08-24T05:28:47;18.50;99.90
22288;DHT22;11312;51.464;6.968;2023-08-24T05:31:13;18.50;99.90
22288;DHT22;11312;51.464;6.968;2023-08-24T05:33:38;18.50;99.90
22288;DHT22;11312;51.464;6.968;2023-08-24T05:36:04;18.60;99.90
22288;DHT22;11312;51.464;6.968;2023-08-24T05:38:30;18.70;99.90
22288;DHT22;11312;51.464;6.968;2023-08-24T05:40:55;18.70;99.90
22288;DHT22;11312;51.464;6.968;2023-08-24T05:43:21;18.50;99.90
22288;DHT22;11312;51.464;6.968;2023-08-24T05:45:48;18.60;99.90
22288;DHT22;11312;51.464;6.968;2023-08-24T05:48:14;18.50;99.90
22288;DHT22;11312;51.464;6.968;2023-08-24T05:50:46;18.50;99.90
22288;DHT22;11312;51.464;6.968;2023-08-24T05:53:12;18.60;99.90
22288;DHT22;11312;51.464;6.968;2023-08-24T05:55:38;18.50;99.90
22288;DHT22;11312;51.464;6.968;2023-08-24T05:58:04;18.50;99.90
22288;DHT22;11312;51.464;6.968;2023-08-24T06:00:30;18.50;99.90
22288;DHT22;11312;51.464;6.968;2023-08-24T06:02:55;18.60;99.90
22288;DHT22;11312;51.464;6.968;2023-08-24T06:05:21;18.60;99.90
22288;DHT22;11312;51.464;6.968;2023-08-24T06:07:48;18.60;99.90
22288;DHT22;11312;51.464;6.968;2023-08-24T06:10:14;18.70;99.90
22288;DHT22;11312;51.464;6.968;2023-08-24T06:12:40;18.70;99.90
22288;DHT22;11312;51.464;6.968;2023-08-24T06:15:06;18.70;99.90
22288;DHT22;11312;51.464;6.968;2023-08-24T06:17:35;18.80;99.90
22288;DHT22;11312;51.464;6.968;2023-08-24T06:20:03;18.80;99.90
22288;DHT22;11312;51.464;6.968;2023-08-24T06:22:29;18.90;99.90
22288;DHT22;11312;51.464;6.968;2023-08-24T06:24:54;18.80;99.90
22288;DHT22;11312;51.464;6.968;2023-08-24T06:27:25;18.90;99.90
22288;DHT22;11312;51.464;6.968;2023-08-24T06:29:50;18.90;99.90
22288;DHT22;11312;51.464;6.968;2023-08-24T06:32:16;18.90;99.90
22288;DHT22;11312;51.464;6.968;2023-08-24T06:34:41;19.10;99.90
22288;DHT22;11312;51.464;6.968;2023-08-24T06:37:07;19.20;99.90
22288;DHT22;11312;51.464;6.968;2023-08-24T06:39:33;19.40;99.90
22288;DHT22;11312;51.464;6.968;2023-08-24T06:41:58;19.70;99.90
22288;DHT22;11312;51.464;6.968;2023-08-24T06:44:24;19.80;99.90
22288;DHT22;11312;51.464;6.968;2023-08-24T06:46:50;20.20;99.90
22288;DHT22;11312;51.464;6.968;2023-08-24T06:49:15;20.50;99.90
22288;DHT22;11312;51.464;6.968;2023-08-24T06:51:41;21.00;99.90
22288;DHT22;11312;51.464;6.968;2023-08-24T06:54:07;21.50;99.90
22288;DHT22;11312;51.464;6.968;2023-08-24T06:56:32;22.00;99.90
22288;DHT22;11312;51.464;6.968;2023-08-24T06:58:58;22.50;99.90
22288;DHT22;11312;51.464;6.968;2023-08-24T07:01:23;22.90;23.60
22288;DHT22;11312;51.464;6.968;2023-08-24T07:03:51;23.50;1.00
22288;DHT22;11312;51.464;6.968;2023-08-24T07:06:16;23.70;99.90
22288;DHT22;11312;51.464;6.968;2023-08-24T07:08:42;24.00;1.00
22288;DHT22;11312;51.464;6.968;2023-08-24T07:11:08;24.70;1.00
22288;DHT22;11312;51.464;6.968;2023-08-24T07:13:33;24.90;1.00
22288;DHT22;11312;51.464;6.968;2023-08-24T07:16:00;24.90;1.00
22288;DHT22;11312;51.464;6.968;2023-08-24T07:18:26;25.00;1.00
22288;DHT22;11312;51.464;6.968;2023-08-24T07:20:52;25.50;1.00
22288;DHT22;11312;51.464;6.968;2023-08-24T07:23:17;25.80;99.90
22288;DHT22;11312;51.464;6.968;2023-08-24T07:25:43;25.60;1.00
22288;DHT22;11312;51.464;6.968;2023-08-24T07:28:08;25.80;99.90
22288;DHT22;11312;51.464;6.968;2023-08-24T07:30:35;26.00;1.00
22288;DHT22;11312;51.464;6.968;2023-08-24T07:33:02;26.00;25.10
22288;DHT22;11312;51.464;6.968;2023-08-24T07:35:30;26.40;1.00
22288;DHT22;11312;51.464;6.968;2023-08-24T07:37:55;26.40;1.00
22288;DHT22;11312;51.464;6.968;2023-08-24T07:40:21;26.80;99.90
22288;DHT22;11312;51.464;6.968;2023-08-24T07:42:51;26.80;1.00
22288;DHT22;11312;51.464;6.968;2023-08-24T07:45:22;27.00;99.90
22288;DHT22;11312;51.464;6.968;2023-08-24T07:47:49;27.40;1.00
22288;DHT22;11312;51.464;6.968;2023-08-24T07:50:15;27.40;1.00
22288;DHT22;11312;51.464;6.968;2023-08-24T07:52:42;27.20;48.60
22288;DHT22;11312;51.464;6.968;2023-08-24T07:55:08;27.10;61.20
22288;DHT22;11312;51.464;6.968;2023-08-24T07:57:35;26.70;18.20
22288;DHT22;11312;51.464;6.968;2023-08-24T08:00:02;26.70;1.00
22288;DHT22;11312;51.464;6.968;2023-08-24T08:02:28;27.30;1.00
22288;DHT22;11312;51.464;6.968;2023-08-24T08:04:57;27.90;1.00
22288;DHT22;11312;51.464;6.968;2023-08-24T08:07:28;27.70;99.90
22288;DHT22;11312;51.464;6.968;2023-08-24T08:09:54;28.20;99.90
22288;DHT22;11312;51.464;6.968;2023-08-24T08:12:19;28.50;1.00
22288;DHT22;11312;51.464;6.968;2023-08-24T08:14:45;28.80;99.90
22288;DHT22;11312;51.464;6.968;2023-08-24T08:17:11;29.20;99.90
22288;DHT22;11312;51.464;6.968;2023-08-24T08:19:37;29.10;1.00
22288;DHT22;11312;51.464;6.968;2023-08-24T08:22:04;29.60;99.90
22288;DHT22;11312;51.464;6.968;2023-08-24T08:24:30;29.60;1.00
22288;DHT22;11312;51.464;6.968;2023-08-24T08:26:56;29.80;99.90
22288;DHT22;11312;51.464;6.968;2023-08-24T08:29:22;29.80;1.00
22288;DHT22;11312;51.464;6.968;2023-08-24T08:31:48;29.90;99.90
22288;DHT22;11312;51.464;6.968;2023-08-24T08:34:13;29.70;50.10
22288;DHT22;11312;51.464;6.968;2023-08-24T08:36:39;29.50;1.00
22288;DHT22;11312;51.464;6.968;2023-08-24T08:39:04;29.50;99.90
22288;DHT22;11312;51.464;6.968;2023-08-24T08:41:43;29.30;99.90
22288;DHT22;11312;51.464;6.968;2023-08-24T08:44:12;29.50;1.00
22288;DHT22;11312;51.464;6.968;2023-08-24T08:46:40;29.60;99.90
22288;DHT22;11312;51.464;6.968;2023-08-24T08:49:06;29.40;1.00
22288;DHT22;11312;51.464;6.968;2023-08-24T08:51:36;29.60;92.80
22288;DHT22;11312;51.464;6.968;2023-08-24T08:54:02;28.70;1.00
22288;DHT22;11312;51.464;6.968;2023-08-24T08:56:29;28.80;99.90
22288;DHT22;11312;51.464;6.968;2023-08-24T08:58:56;28.30;99.90
22288;DHT22;11312;51.464;6.968;2023-08-24T09:01:22;28.80;99.90
22288;DHT22;11312;51.464;6.968;2023-08-24T09:03:49;28.80;1.00
22288;DHT22;11312;51.464;6.968;2023-08-24T09:06:14;28.60;1.00
22288;DHT22;11312;51.464;6.968;2023-08-24T09:08:48;29.30;1.00
22288;DHT22;11312;51.464;6.968;2023-08-24T09:11:15;29.80;99.90
22288;DHT22;11312;51.464;6.968;2023-08-24T09:13:42;30.00;1.00
22288;DHT22;11312;51.464;6.968;2023-08-24T09:16:08;29.50;1.00
22288;DHT22;11312;51.464;6.968;2023-08-24T09:18:41;29.30;1.00
22288;DHT22;11312;51.464;6.968;2023-08-24T09:21:10;29.30;1.00
22288;DHT22;11312;51.464;6.968;2023-08-24T09:23:38;29.90;99.90
22288;DHT22;11312;51.464;6.968;2023-08-24T09:26:08;29.80;97.50
22288;DHT22;11312;51.464;6.968;2023-08-24T09:28:33;30.30;1.00
22288;DHT22;11312;51.464;6.968;2023-08-24T09:31:01;30.60;1.00
22288;DHT22;11312;51.464;6.968;2023-08-24T09:33:28;30.60;1.00
22288;DHT22;11312;51.464;6.968;2023-08-24T09:35:55;30.20;1.00
22288;DHT22;11312;51.464;6.968;2023-08-24T09:38:27;30.00;1.00
22288;DHT22;11312;51.464;6.968;2023-08-24T09:40:54;30.20;1.00
22288;DHT22;11312;51.464;6.968;2023-08-24T09:43:20;30.50;1.00
22288;DHT22;11312;51.464;6.968;2023-08-24T09:48:17;30.20;99.90
22288;DHT22;11312;51.464;6.968;2023-08-24T09:50:47;29.30;82.20
22288;DHT22;11312;51.464;6.968;2023-08-24T09:53:17;29.90;99.90
22288;DHT22;11312;51.464;6.968;2023-08-24T09:55:53;30.00;1.00
22288;DHT22;11312;51.464;6.968;2023-08-24T09:58:20;29.50;99.90
22288;DHT22;11312;51.464;6.968;2023-08-24T10:00:46;29.90;1.00
22288;DHT22;11312;51.464;6.968;2023-08-24T10:03:16;30.20;1.00
22288;DHT22;11312;51.464;6.968;2023-08-24T10:05:52;30.00;99.90
22288;DHT22;11312;51.464;6.968;2023-08-24T10:08:26;29.90;99.90
22288;DHT22;11312;51.464;6.968;2023-08-24T10:10:53;30.30;99.90
22288;DHT22;11312;51.464;6.968;2023-08-24T10:13:29;30.60;1.00
22288;DHT22;11312;51.464;6.968;2023-08-24T10:15:57;30.20;99.90
22288;DHT22;11312;51.464;6.968;2023-08-24T10:18:25;29.80;49.30
22288;DHT22;11312;51.464;6.968;2023-08-24T10:20:52;29.80;99.90
22288;DHT22;11312;51.464;6.968;2023-08-24T10:23:19;29.60;22.10
22288;DHT22;11312;51.464;6.968;2023-08-24T10:25:46;29.80;99.90
22288;DHT22;11312;51.464;6.968;2023-08-24T10:28:12;29.60;26.60
22288;DHT22;11312;51.464;6.968;2023-08-24T10:30:39;29.70;18.90
22288;DHT22;11312;51.464;6.968;2023-08-24T10:33:06;30.20;99.90
22288;DHT22;11312;51.464;6.968;2023-08-24T10:35:32;29.40;1.00
22288;DHT22;11312;51.464;6.968;2023-08-24T10:37:59;29.30;1.00
22288;DHT22;11312;51.464;6.968;2023-08-24T10:40:36;29.60;1.00
22288;DHT22;11312;51.464;6.968;2023-08-24T10:43:03;29.20;1.00
22288;DHT22;11312;51.464;6.968;2023-08-24T10:48:29;29.50;99.90
22288;DHT22;11312;51.464;6.968;2023-08-24T10:54:02;29.80;99.90
22288;DHT22;11312;51.464;6.968;2023-08-24T10:56:37;29.70;1.00
22288;DHT22;11312;51.464;6.968;2023-08-24T10:59:13;29.60;1.00
22288;DHT22;11312;51.464;6.968;2023-08-24T11:01:41;29.70;1.00
22288;DHT22;11312;51.464;6.968;2023-08-24T11:04:07;29.60;1.00
22288;DHT22;11312;51.464;6.968;2023-08-24T11:06:33;29.80;1.00
22288;DHT22;11312;51.464;6.968;2023-08-24T11:09:06;30.10;36.10
22288;DHT22;11312;51.464;6.968;2023-08-24T11:11:39;29.40;1.00
22288;DHT22;11312;51.464;6.968;2023-08-24T11:14:19;29.40;1.00
22288;DHT22;11312;51.464;6.968;2023-08-24T11:16:48;29.50;1.00
22288;DHT22;11312;51.464;6.968;2023-08-24T11:19:15;29.70;99.90
22288;DHT22;11312;51.464;6.968;2023-08-24T11:21:43;29.50;1.00
22288;DHT22;11312;51.464;6.968;2023-08-24T11:24:16;29.20;1.00
22288;DHT22;11312;51.464;6.968;2023-08-24T11:26:43;28.90;1.00
22288;DHT22;11312;51.464;6.968;2023-08-24T11:29:10;28.90;1.00
22288;DHT22;11312;51.464;6.968;2023-08-24T11:31:36;29.00;1.00
22288;DHT22;11312;51.464;6.968;2023-08-24T11:34:03;29.00;99.90
22288;DHT22;11312;51.464;6.968;2023-08-24T11:36:48;28.80;1.00
22288;DHT22;11312;51.464;6.968;2023-08-24T11:39:19;28.20;1.00
22288;DHT22;11312;51.464;6.968;2023-08-24T11:41:59;28.10;99.90
22288;DHT22;11312;51.464;6.968;2023-08-24T11:44:25;28.10;99.90
22288;DHT22;11312;51.464;6.968;2023-08-24T11:46:51;27.80;99.90
22288;DHT22;11312;51.464;6.968;2023-08-24T11:49:17;27.90;99.90
22288;DHT22;11312;51.464;6.968;2023-08-24T11:51:43;27.90;99.90
22288;DHT22;11312;51.464;6.968;2023-08-24T11:54:08;27.80;99.90
22288;DHT22;11312;51.464;6.968;2023-08-24T11:56:42;27.80;99.90
22288;DHT22;11312;51.464;6.968;2023-08-24T11:59:15;27.90;99.90
22288;DHT22;11312;51.464;6.968;2023-08-24T12:01:42;28.10;1.00
22288;DHT22;11312;51.464;6.968;2023-08-24T12:04:08;28.10;99.90
22288;DHT22;11312;51.464;6.968;2023-08-24T12:06:34;28.00;99.90
22288;DHT22;11312;51.464;6.968;2023-08-24T12:08:59;28.10;99.90
22288;DHT22;11312;51.464;6.968;2023-08-24T12:11:26;28.10;1.00
22288;DHT22;11312;51.464;6.968;2023-08-24T12:13:54;28.10;1.00
22288;DHT22;11312;51.464;6.968;2023-08-24T12:16:21;28.00;1.00
22288;DHT22;11312;51.464;6.968;2023-08-24T12:18:53;27.90;1.00
22288;DHT22;11312;51.464;6.968;2023-08-24T12:21:19;27.90;1.00
22288;DHT22;11312;51.464;6.968;2023-08-24T12:23:54;27.80;1.00
22288;DHT22;11312;51.464;6.968;2023-08-24T12:26:20;27.80;1.00
22288;DHT22;11312;51.464;6.968;2023-08-24T12:28:52;27.60;1.00
22288;DHT22;11312;51.464;6.968;2023-08-24T12:31:19;27.60;1.00
22288;DHT22;11312;51.464;6.968;2023-08-24T12:33:45;27.70;1.00
22288;DHT22;11312;51.464;6.968;2023-08-24T12:36:11;27.70;99.90
22288;DHT22;11312;51.464;6.968;2023-08-24T12:38:37;27.50;1.00
22288;DHT22;11312;51.464;6.968;2023-08-24T12:41:04;27.30;99.90
22288;DHT22;11312;51.464;6.968;2023-08-24T12:43:29;27.20;99.90
22288;DHT22;11312;51.464;6.968;2023-08-24T12:45:55;27.10;99.90
22288;DHT22;11312;51.464;6.968;2023-08-24T12:48:20;27.00;99.90
22288;DHT22;11312;51.464;6.968;2023-08-24T12:50:46;27.00;1.00
22288;DHT22;11312;51.464;6.968;2023-08-24T12:53:12;26.70;99.90
22288;DHT22;11312;51.464;6.968;2023-08-24T12:55:39;26.50;29.30
22288;DHT22;11312;51.464;6.968;2023-08-24T12:58:08;26.40;1.00
22288;DHT22;11312;51.464;6.968;2023-08-24T13:00:34;26.30;1.00
22288;DHT22;11312;51.464;6.968;2023-08-24T13:03:00;26.30;45.30
22288;DHT22;11312;51.464;6.968;2023-08-24T13:05:25;26.30;1.00
22288;DHT22;11312;51.464;6.968;2023-08-24T13:07:51;26.30;1.00
22288;DHT22;11312;51.464;6.968;2023-08-24T13:10:17;26.40;1.00
22288;DHT22;11312;51.464;6.968;2023-08-24T13:12:42;26.30;99.90
22288;DHT22;11312;51.464;6.968;2023-08-24T13:15:08;26.50;99.90
22288;DHT22;11312;51.464;6.968;2023-08-24T13:17:35;26.70;1.00
22288;DHT22;11312;51.464;6.968;2023-08-24T13:20:00;26.70;99.90
22288;DHT22;11312;51.464;6.968;2023-08-24T13:22:26;26.70;1.00
22288;DHT22;11312;51.464;6.968;2023-08-24T13:24:51;26.70;99.90
22288;DHT22;11312;51.464;6.968;2023-08-24T13:27:17;26.80;99.90
22288;DHT22;11312;51.464;6.968;2023-08-24T13:29:43;26.90;1.00
22288;DHT22;11312;51.464;6.968;2023-08-24T13:32:08;26.90;1.00
22288;DHT22;11312;51.464;6.968;2023-08-24T13:34:35;26.90;1.00
22288;DHT22;11312;51.464;6.968;2023-08-24T13:37:02;26.90;1.00
22288;DHT22;11312;51.464;6.968;2023-08-24T13:39:27;26.70;1.00
22288;DHT22;11312;51.464;6.968;2023-08-24T13:41:57;26.20;1.00
22288;DHT22;11312;51.464;6.968;2023-08-24T13:44:23;26.20;1.00
22288;DHT22;11312;51.464;6.968;2023-08-24T13:46:48;26.20;64.20
22288;DHT22;11312;51.464;6.968;2023-08-24T13:49:14;26.30;1.00
22288;DHT22;11312;51.464;6.968;2023-08-24T13:51:39;26.40;1.00
22288;DHT22;11312;51.464;6.968;2023-08-24T13:54:17;26.20;1.00
22288;DHT22;11312;51.464;6.968;2023-08-24T13:56:47;26.30;99.90
22288;DHT22;11312;51.464;6.968;2023-08-24T13:59:13;26.10;33.80
22288;DHT22;11312;51.464;6.968;2023-08-24T14:01:39;26.10;99.90
22288;DHT22;11312;51.464;6.968;2023-08-24T14:04:04;26.10;99.90
22288;DHT22;11312;51.464;6.968;2023-08-24T14:06:30;25.90;99.90
22288;DHT22;11312;51.464;6.968;2023-08-24T14:08:56;25.80;1.00
22288;DHT22;11312;51.464;6.968;2023-08-24T14:11:22;25.80;1.00
22288;DHT22;11312;51.464;6.968;2023-08-24T14:13:48;25.80;99.90
22288;DHT22;11312;51.464;6.968;2023-08-24T14:16:13;25.80;99.90
22288;DHT22;11312;51.464;6.968;2023-08-24T14:18:39;25.80;1.00
22288;DHT22;11312;51.464;6.968;2023-08-24T14:21:05;25.70;99.90
22288;DHT22;11312;51.464;6.968;2023-08-24T14:23:30;25.70;99.90
22288;DHT22;11312;51.464;6.968;2023-08-24T14:25:56;25.60;1.00
22288;DHT22;11312;51.464;6.968;2023-08-24T14:28:22;25.60;1.00
22288;DHT22;11312;51.464;6.968;2023-08-24T14:30:49;25.60;1.00
22288;DHT22;11312;51.464;6.968;2023-08-24T14:33:15;25.60;99.90
22288;DHT22;11312;51.464;6.968;2023-08-24T14:35:41;25.60;1.00
22288;DHT22;11312;51.464;6.968;2023-08-24T14:38:07;25.60;1.00
22288;DHT22;11312;51.464;6.968;2023-08-24T14:40:33;25.50;1.00
22288;DHT22;11312;51.464;6.968;2023-08-24T14:42:58;25.60;99.90
22288;DHT22;11312;51.464;6.968;2023-08-24T14:45:23;25.50;1.00
22288;DHT22;11312;51.464;6.968;2023-08-24T14:47:50;25.50;1.00
22288;DHT22;11312;51.464;6.968;2023-08-24T14:50:16;25.50;1.00
22288;DHT22;11312;51.464;6.968;2023-08-24T14:52:41;25.40;1.00
22288;DHT22;11312;51.464;6.968;2023-08-24T14:55:07;25.30;1.00
22288;DHT22;11312;51.464;6.968;2023-08-24T14:57:35;25.20;1.00
22288;DHT22;11312;51.464;6.968;2023-08-24T15:00:02;25.20;1.00
22288;DHT22;11312;51.464;6.968;2023-08-24T15:02:28;25.20;1.00
22288;DHT22;11312;51.464;6.968;2023-08-24T15:04:54;25.00;1.00
22288;DHT22;11312;51.464;6.968;2023-08-24T15:07:19;25.00;1.00
22288;DHT22;11312;51.464;6.968;2023-08-24T15:09:45;25.00;1.00
22288;DHT22;11312;51.464;6.968;2023-08-24T15:12:10;25.00;1.00
22288;DHT22;11312;51.464;6.968;2023-08-24T15:14:36;25.00;1.00
22288;DHT22;11312;51.464;6.968;2023-08-24T15:17:01;24.90;1.00
22288;DHT22;11312;51.464;6.968;2023-08-24T15:19:27;24.80;1.00
22288;DHT22;11312;51.464;6.968;2023-08-24T15:21:52;24.70;1.00
22288;DHT22;11312;51.464;6.968;2023-08-24T15:24:18;24.70;1.00
22288;DHT22;11312;51.464;6.968;2023-08-24T15:26:44;24.50;1.00
22288;DHT22;11312;51.464;6.968;2023-08-24T15:29:12;24.50;1.00
22288;DHT22;11312;51.464;6.968;2023-08-24T15:31:40;24.40;22.10
22288;DHT22;11312;51.464;6.968;2023-08-24T15:34:06;24.40;1.00
22288;DHT22;11312;51.464;6.968;2023-08-24T15:36:32;24.40;1.00
22288;DHT22;11312;51.464;6.968;2023-08-24T15:38:58;24.30;1.00
22288;DHT22;11312;51.464;6.968;2023-08-24T15:41:24;24.20;1.00
22288;DHT22;11312;51.464;6.968;2023-08-24T15:43:50;24.10;1.00
22288;DHT22;11312;51.464;6.968;2023-08-24T15:46:16;24.00;1.00